SLAS/ASC METAR and TAF weather

Enter ICAO airport designator
Station Type Date Time Source
SLAS METAR 2019/10/17 11:00 UTC NOAA

SLAS 171100Z 00000KT 2000 FU NSC 21/19 Q1016


Station Type Date Time Source
SLAS Decoded METAR 2019/10/17 11:00 UTC NOAA

Ascencion De Guarayos, Bolivia (SLAS) 15-43S 063-06W
Oct 17, 2019 - 07:00 AM EDT / 2019.10.17 1100 UTC
Wind: Calm:0
Visibility: 1 mile(s):0
Weather: smoke
Temperature: 69 F (21 C)
Dew Point: 66 F (19 C)
Relative Humidity: 88%
Pressure (altimeter): 30.00 in. Hg (1016 hPa)
ob: SLAS 171100Z 00000KT 2000 FU NSC 21/19 Q1016
cycle: 11

Station Type Date Time Source
SLAS TAF UTC NOAA

Error!

Example: see airport list